createdAt,value
2023-01-08T01:29:07.457Z,88125.00
2023-01-08T01:30:07.430Z,88139.00
2023-01-08T01:31:07.511Z,88135.00
2023-01-08T01:32:07.383Z,88137.00
2023-01-08T01:33:07.383Z,88149.00
2023-01-08T01:34:07.348Z,88135.00
2023-01-08T03:26:04.912Z,88086.00
2023-01-08T03:27:04.899Z,88084.00
2023-01-08T03:28:04.871Z,88080.00
2023-01-08T03:29:04.850Z,88078.00
2023-01-08T03:30:04.827Z,88082.00
2023-01-08T03:31:04.833Z,88077.00
2023-01-08T03:32:04.783Z,88075.00
2023-01-08T03:33:04.879Z,88073.00
2023-01-08T03:34:04.751Z,88073.00
2023-01-08T03:35:04.714Z,88071.00
2023-01-08T03:36:04.692Z,88067.00
2023-01-08T03:37:04.663Z,88071.00
2023-01-08T03:38:04.633Z,88067.00
2023-01-08T03:39:04.613Z,88071.00
2023-01-08T03:40:04.576Z,88071.00
2023-01-08T03:41:04.564Z,88073.00
2023-01-08T03:42:04.532Z,88069.00
2023-01-08T03:43:04.512Z,88067.00
2023-01-08T03:44:04.490Z,88059.00
2023-01-08T03:45:04.468Z,88061.00
2023-01-08T03:46:04.507Z,88055.00
2023-01-08T03:47:04.424Z,88059.00
2023-01-08T03:48:04.391Z,88063.00
2023-01-08T03:49:04.472Z,88059.00
2023-01-08T03:50:04.354Z,88053.00
2023-01-08T03:51:04.326Z,88057.00
2023-01-08T03:52:04.298Z,88059.00
2023-01-08T03:53:04.277Z,88049.00
2023-01-08T03:54:04.257Z,88041.00
2023-01-08T03:55:04.261Z,88043.00
2023-01-08T03:56:04.212Z,88049.00
2023-01-08T03:57:04.180Z,88045.00
2023-01-08T03:58:04.159Z,88045.00
2023-01-08T03:59:04.138Z,88045.00
2023-01-08T04:00:04.128Z,88037.00
2023-01-08T04:01:04.103Z,88037.00
2023-01-08T04:02:04.188Z,88033.00
2023-01-08T04:03:05.827Z,88037.00
2023-01-08T04:04:04.090Z,88033.00
2023-01-08T04:05:04.100Z,88035.00
2023-01-08T04:06:03.998Z,88037.00
2023-01-08T04:07:03.969Z,88035.00
2023-01-08T04:08:03.950Z,88020.00
2023-01-08T04:09:03.929Z,88023.00
2023-01-08T04:10:03.906Z,88023.00
2023-01-08T04:11:03.893Z,88025.00
2023-01-08T04:12:03.867Z,88016.00
2023-01-08T04:13:03.859Z,88006.00
2023-01-08T04:14:03.818Z,88010.00
2023-01-08T04:15:03.808Z,88012.00
2023-01-08T04:16:03.900Z,88014.00
2023-01-08T04:17:03.776Z,88014.00
2023-01-08T04:18:03.750Z,88010.00
2023-01-08T04:19:03.727Z,88004.00
2023-01-08T04:20:03.715Z,88008.00
2023-01-08T04:21:03.775Z,88006.00
2023-01-08T04:22:03.668Z,87996.00
2023-01-08T04:23:03.661Z,88004.00
2023-01-08T04:24:03.618Z,88008.00
2023-01-08T04:25:03.619Z,88008.00
2023-01-08T04:26:03.590Z,88012.00
2023-01-08T04:27:03.573Z,88004.00
2023-01-08T04:28:03.541Z,88004.00
2023-01-08T04:29:03.542Z,88002.00
2023-01-08T04:30:03.513Z,88006.00
2023-01-08T04:31:03.520Z,88008.00
2023-01-08T04:32:03.467Z,88010.00
2023-01-08T04:33:03.449Z,88014.00
2023-01-08T04:34:03.436Z,88014.00
2023-01-08T04:35:03.406Z,88006.00
2023-01-08T04:36:03.388Z,88012.00
2023-01-08T04:37:03.470Z,88016.00
2023-01-08T04:38:03.339Z,88022.00
2023-01-08T04:39:03.326Z,88016.00
2023-01-08T04:40:03.300Z,88010.00
2023-01-08T04:41:03.281Z,88018.00
2023-01-08T04:42:03.262Z,88022.00
2023-01-08T04:43:03.247Z,88018.00
2023-01-08T04:44:03.229Z,88022.00
2023-01-08T04:45:03.230Z,88014.00
2023-01-08T04:46:03.251Z,88018.00
2023-01-08T04:47:03.197Z,88022.00
2023-01-08T04:48:03.184Z,88020.00
2023-01-08T04:49:03.153Z,88022.00
2023-01-08T04:50:03.152Z,88025.00
2023-01-08T04:51:03.114Z,88027.00
2023-01-08T04:52:03.083Z,88025.00
2023-01-08T04:53:03.073Z,88025.00
2023-01-08T04:54:03.063Z,88037.00
2023-01-08T04:55:03.024Z,88031.00
2023-01-08T04:56:03.010Z,88033.00
2023-01-08T04:57:03.037Z,88033.00
2023-01-08T04:58:02.963Z,88035.00
2023-01-08T04:59:02.935Z,88033.00
2023-01-08T10:18:56.775Z,87903.00
2023-01-08T10:19:56.741Z,87895.00
2023-01-08T10:20:56.725Z,87897.00
2023-01-08T10:21:56.703Z,87905.00
2023-01-08T10:22:56.706Z,87889.00
2023-01-08T10:23:56.660Z,87895.00
2023-01-08T10:24:56.639Z,87903.00
2023-01-08T10:25:56.621Z,87899.00
2023-01-08T10:26:56.602Z,87895.00
2023-01-08T10:27:56.602Z,87893.00
2023-01-08T10:28:56.656Z,87899.00
2023-01-08T10:29:56.540Z,87895.00
2023-01-08T10:30:56.512Z,87889.00
2023-01-08T10:31:56.490Z,87899.00
2023-01-08T10:32:56.474Z,87908.00
2023-01-08T10:33:56.448Z,87903.00
2023-01-08T10:34:56.432Z,87903.00
2023-01-08T10:35:56.399Z,87903.00
2023-01-08T10:36:56.412Z,87895.00
2023-01-08T10:37:56.356Z,87897.00
2023-01-08T10:38:56.350Z,87895.00
2023-01-08T10:39:56.318Z,87881.00
2023-01-08T10:40:56.310Z,87881.00
2023-01-08T10:41:56.282Z,87887.00
2023-01-08T10:42:56.275Z,87893.00
2023-01-08T10:43:56.278Z,87893.00
2023-01-08T10:44:56.224Z,87887.00
2023-01-08T10:45:56.229Z,87891.00
2023-01-08T10:46:56.182Z,87883.00
2023-01-08T10:47:56.162Z,87893.00
2023-01-08T10:48:56.150Z,87893.00
2023-01-08T10:49:56.120Z,87889.00
2023-01-08T10:50:56.102Z,87887.00
2023-01-08T10:51:56.082Z,87893.00
2023-01-08T10:52:56.059Z,87887.00
2023-01-08T10:53:56.039Z,87887.00
2023-01-08T10:54:56.027Z,87883.00
2023-01-08T10:55:55.994Z,87879.00
2023-01-08T10:56:55.974Z,87875.00
2023-01-08T10:57:55.961Z,87859.00
2023-01-08T10:58:55.948Z,87869.00
2023-01-08T10:59:55.943Z,87867.00
2023-01-08T11:00:56.115Z,87875.00
2023-01-08T11:01:56.141Z,87879.00
2023-01-08T11:02:55.877Z,87873.00
2023-01-08T11:03:55.861Z,87873.00
2023-01-08T11:04:55.847Z,87875.00
2023-01-08T11:05:55.822Z,87873.00
2023-01-08T11:06:55.823Z,87865.00
2023-01-08T11:07:55.791Z,87863.00
2023-01-08T11:08:55.777Z,87863.00
2023-01-08T11:09:55.757Z,87863.00
2023-01-08T11:10:55.728Z,87861.00
2023-01-08T11:11:55.697Z,87863.00
2023-01-08T11:12:55.679Z,87867.00
2023-01-08T11:13:55.652Z,87861.00
2023-01-08T11:14:55.746Z,87853.00
2023-01-08T11:15:55.650Z,87850.00
2023-01-08T11:16:55.594Z,87852.00
2023-01-08T11:17:55.581Z,87836.00
2023-01-08T11:18:55.558Z,87844.00
2023-01-08T11:19:56.023Z,87846.00
2023-01-08T11:20:55.515Z,87842.00
2023-01-08T11:21:55.503Z,87846.00
2023-01-08T11:22:55.484Z,87836.00
2023-01-08T11:23:55.468Z,87836.00
2023-01-08T11:24:55.461Z,87842.00
2023-01-08T11:25:55.447Z,87842.00
2023-01-08T11:26:55.426Z,87840.00
2023-01-08T11:27:55.399Z,87842.00
2023-01-08T11:28:55.389Z,87834.00
2023-01-08T11:29:55.375Z,87836.00
2023-01-08T11:30:55.365Z,87828.00
2023-01-08T11:31:55.404Z,87840.00
2023-01-08T11:32:55.329Z,87838.00
2023-01-08T11:33:55.295Z,87842.00
2023-01-08T11:34:55.284Z,87830.00
2023-01-08T11:35:55.262Z,87828.00
2023-01-08T11:36:55.244Z,87828.00
2023-01-08T11:37:55.235Z,87826.00
2023-01-08T11:38:55.209Z,87814.00
2023-01-08T11:39:55.187Z,87808.00
2023-01-08T11:40:55.182Z,87808.00
2023-01-08T11:41:55.143Z,87808.00
2023-01-08T11:42:55.128Z,87814.00
2023-01-08T11:43:55.108Z,87812.00
2023-01-08T11:44:55.112Z,87808.00
2023-01-08T11:45:55.176Z,87812.00
2023-01-08T11:46:55.056Z,87808.00
2023-01-08T11:47:55.048Z,87810.00
2023-01-08T11:48:55.024Z,87806.00
2023-01-08T11:49:55.007Z,87806.00
2023-01-08T11:50:54.988Z,87804.00
2023-01-08T11:51:54.975Z,87802.00
2023-01-08T11:52:54.965Z,87808.00
2023-01-08T11:53:54.937Z,87798.00
2023-01-08T11:54:54.936Z,87798.00
2023-01-08T11:55:54.917Z,87800.00
2023-01-08T11:56:54.875Z,87800.00
2023-01-08T11:57:54.856Z,87798.00
2023-01-08T11:58:54.821Z,87800.00
2023-01-08T11:59:54.814Z,87798.00
2023-01-08T12:00:54.782Z,87800.00
2023-01-08T12:01:54.871Z,87793.00
2023-01-08T12:02:54.759Z,87789.00
2023-01-08T12:03:54.715Z,87785.00
2023-01-08T12:04:54.714Z,87787.00
2023-01-08T12:05:54.694Z,87775.00
2023-01-08T12:06:54.637Z,87777.00
2023-01-08T12:07:54.608Z,87765.00
2023-01-08T12:08:54.591Z,87765.00
2023-01-08T12:09:54.564Z,87765.00
2023-01-08T12:10:54.574Z,87761.00
2023-01-08T12:11:54.527Z,87765.00
2023-01-08T12:12:54.498Z,87763.00
2023-01-08T12:13:54.474Z,87765.00
2023-01-08T12:14:54.440Z,87771.00
2023-01-08T12:15:54.417Z,87767.00
2023-01-08T12:16:54.395Z,87765.00
2023-01-08T12:17:54.382Z,87759.00
2023-01-08T12:18:54.349Z,87757.00
2023-01-08T12:19:54.320Z,87763.00
2023-01-08T12:20:54.297Z,87755.00
2023-01-08T12:21:54.280Z,87750.00
2023-01-08T12:22:54.256Z,87746.00
2023-01-08T12:23:54.223Z,87740.00
2023-01-08T12:24:54.214Z,87748.00
2023-01-08T12:25:54.187Z,87746.00
2023-01-08T12:26:54.177Z,87746.00
2023-01-08T12:27:57.083Z,87744.00
2023-01-08T12:28:54.119Z,87748.00
2023-01-08T12:29:54.101Z,87746.00
2023-01-08T12:30:54.090Z,87734.00
2023-01-08T12:32:03.020Z,87740.00
2023-01-08T12:33:54.021Z,87728.00
2023-01-08T12:34:54.000Z,87722.00
2023-01-08T12:35:53.977Z,87728.00
2023-01-08T12:36:53.969Z,87728.00
2023-01-08T12:37:53.939Z,87714.00
2023-01-08T12:38:53.927Z,87710.00
2023-01-08T12:39:53.904Z,87714.00
2023-01-08T12:40:53.888Z,87710.00
2023-01-08T12:41:53.865Z,87720.00
2023-01-08T12:43:01.167Z,87722.00
2023-01-08T12:44:53.818Z,87712.00
2023-01-08T12:45:53.831Z,87714.00
2023-01-08T12:46:53.791Z,87712.00
2023-01-08T12:47:53.762Z,87708.00
2023-01-08T12:48:53.753Z,87706.00
2023-01-08T12:49:53.736Z,87691.00
2023-01-08T12:50:53.711Z,87708.00
2023-01-08T12:51:53.704Z,87704.00
2023-01-08T12:52:53.682Z,87710.00
2023-01-08T12:53:53.660Z,87714.00
2023-01-08T12:54:53.650Z,87706.00
2023-01-08T12:55:53.629Z,87706.00
2023-01-08T12:56:53.625Z,87686.00
2023-01-08T12:57:53.598Z,87693.00
2023-01-08T12:58:53.585Z,87706.00
2023-01-08T12:59:53.562Z,87706.00
2023-01-08T13:00:53.602Z,87693.00
2023-01-08T13:01:53.739Z,87695.00
2023-01-08T13:02:53.539Z,87695.00
2023-01-08T13:03:53.477Z,87706.00
2023-01-08T13:04:53.462Z,87704.00
2023-01-08T13:05:53.440Z,87704.00
2023-01-08T13:06:53.428Z,87708.00
2023-01-08T13:07:53.412Z,87697.00
2023-01-08T13:08:53.394Z,87710.00
2023-01-08T13:09:53.370Z,87714.00
2023-01-08T13:10:53.371Z,87706.00
2023-01-08T13:11:53.350Z,87708.00
2023-01-08T13:12:53.333Z,87706.00
2023-01-08T13:13:53.313Z,87695.00
2023-01-08T13:14:53.302Z,87706.00
2023-01-08T13:15:53.286Z,87712.00
2023-01-08T13:16:53.351Z,87706.00
2023-01-08T13:17:53.251Z,87697.00
2023-01-08T13:18:53.248Z,87695.00
2023-01-08T13:19:53.230Z,87686.00
2023-01-08T13:20:53.224Z,87690.00
2023-01-08T13:21:53.228Z,87691.00
2023-01-08T13:22:53.209Z,87688.00
2023-01-08T13:23:53.186Z,87690.00
2023-01-08T13:24:53.173Z,87691.00
2023-01-08T13:25:53.161Z,87690.00
2023-01-08T13:26:53.157Z,87690.00
2023-01-08T13:27:53.150Z,87686.00
2023-01-08T13:28:53.125Z,87688.00
2023-01-08T13:29:53.108Z,87686.00
2023-01-08T13:30:53.137Z,87682.00
2023-01-08T13:31:53.165Z,87686.00
2023-01-08T13:32:53.088Z,87680.00
2023-01-08T13:33:53.069Z,87678.00
2023-01-08T13:34:53.034Z,87682.00
2023-01-08T13:35:53.018Z,87682.00
2023-01-08T13:36:53.005Z,87682.00
2023-01-08T13:37:52.992Z,87680.00
2023-01-08T13:38:52.986Z,87680.00
2023-01-08T13:39:52.965Z,87678.00
2023-01-08T13:40:53.344Z,87678.00
2023-01-08T13:41:52.940Z,87676.00
2023-01-08T13:42:52.935Z,87676.00
2023-01-08T13:47:52.943Z,87660.00
2023-01-08T17:57:48.009Z,87491.00
2023-01-08T18:51:46.810Z,87410.00
2023-01-08T18:58:46.663Z,87415.00
2023-01-08T19:43:45.703Z,87337.00
2023-01-08T20:42:44.668Z,87284.00
2023-01-08T20:52:44.483Z,87282.00
2023-01-08T20:54:44.426Z,87284.00
2023-01-08T21:24:43.806Z,87239.00
2023-01-08T21:30:43.688Z,87219.00
2023-01-08T21:53:43.175Z,87196.00
2023-01-08T21:54:43.156Z,87198.00
2023-01-08T21:55:43.128Z,87196.00
2023-01-08T21:56:43.116Z,87198.00
2023-01-08T21:57:43.093Z,87192.00
2023-01-08T21:58:43.075Z,87185.00
2023-01-08T21:59:43.061Z,87192.00
2023-01-08T22:00:43.081Z,87183.00
2023-01-08T22:01:43.053Z,87179.00
2023-01-08T22:02:43.016Z,87179.00
2023-01-08T22:03:43.041Z,87181.00
2023-01-08T22:04:42.984Z,87177.00
2023-01-08T22:05:42.958Z,87175.00
2023-01-08T22:06:42.978Z,87177.00
2023-01-08T22:07:42.939Z,87169.00
